M.t. King Everest — V7DB8 — position and weather

sailwx.info

Track history (hours):
 
Tides and Currents Weather Stations Pressure Air Temp Water Temp Dewpoint Dewpoint Depression Visibility Wind Speed Wind Dir Waves Ship Positions

M.t. King Everest

Last reported at 2016-Apr-14 03:33 UTC. Time now 2016-May-02 12:31 UTC.
Position N 39°21' W 073°58'.
Warning: this ship's position is 18 days out of date.

Length 181 m; draft 11.2 m.

Type: Ship. MMSI: 538090267.

Date/timePositionNaut miles runAvg speedWind from/ knotsBaromVisibWave heightAir tempDewpointWater temp
2016-Apr-14 03:33N 39°21' W 073°58'1313.4
2016-Apr-14 02:33N 39°34' W 073°55'1313.4
2016-Apr-14 01:33N 39°47' W 073°51'1813.3
2016-Apr-14 00:11N 40°06' W 073°50'2112.6
2016-Apr-13 22:29N 40°27' W 073°50'1010.7
2016-Apr-13 21:33N 40°32' W 074°01'6 6.0
2016-Apr-13 20:31N 40°38' W 074°04'0 0.1
2016-Apr-13 19:31N 40°38' W 074°04'0 0.0
2016-Apr-13 18:31N 40°38' W 074°04'0 0.0
2016-Apr-13 17:31N 40°38' W 074°04'0 0.1
2016-Apr-13 16:31N 40°38' W 074°04'0 0.2
2016-Apr-13 15:31N 40°38' W 074°04'0 0.0
2016-Apr-13 14:33N 40°38' W 074°04'0 0.0
2016-Apr-13 13:33N 40°38' W 074°04'2 1.7
2016-Apr-13 12:33N 40°39' W 074°05'0 0.0
2016-Apr-13 11:33N 40°39' W 074°05'0 0.0
2016-Apr-13 10:30N 40°39' W 074°05'0 0.0
2016-Apr-13 09:33N 40°39' W 074°05'0 0.0
2016-Apr-13 08:33N 40°39' W 074°05'0 0.0
2016-Apr-13 07:33N 40°39' W 074°05'0 0.0
2016-Apr-13 06:33N 40°39' W 074°05'0 0.0
2016-Apr-13 05:33N 40°39' W 074°05'0 0.0
2016-Apr-13 04:33N 40°39' W 074°05'0 0.0
2016-Apr-13 03:33N 40°39' W 074°05'0 0.0
2016-Apr-13 02:33N 40°39' W 074°05'0 0.0
2016-Apr-13 01:30N 40°39' W 074°05'0 0.0
2016-Apr-13 00:30N 40°39' W 074°05'0 0.0
2016-Apr-12 23:30N 40°39' W 074°05'0 0.0
2016-Apr-12 22:33N 40°39' W 074°05'0 0.0
2016-Apr-12 21:33N 40°39' W 074°05'0 0.0
2016-Apr-12 20:24N 40°39' W 074°05'0 0.0
2016-Apr-12 19:33N 40°39' W 074°05'0 0.0
2016-Apr-12 18:33N 40°39' W 074°05'0 0.0
2016-Apr-12 17:33N 40°39' W 074°05'0 0.0
2016-Apr-12 16:33N 40°39' W 074°05'0 0.0
2016-Apr-12 15:24N 40°39' W 074°05'0 0.0
2016-Apr-12 14:33N 40°39' W 074°05'0 0.0
2016-Apr-12 13:33N 40°39' W 074°05'0 0.0
2016-Apr-12 12:33N 40°39' W 074°05'0 0.0
2016-Apr-12 11:33N 40°39' W 074°05'0 0.2
2016-Apr-12 10:33N 40°39' W 074°05'6 5.9
2016-Apr-12 09:33N 40°34' W 074°02'9 9.1
2016-Apr-12 08:33N 40°28' W 073°52'  
Track history (hours):
 
Tides and Currents Weather Stations Pressure Air Temp Water Temp Dewpoint Dewpoint Depression Visibility Wind Speed Wind Dir Waves Ship Positions

M.t. King Everest

Last reported at 2016-Apr-14 03:33 UTC. Time now 2016-May-02 12:31 UTC.
Position N 39°21' W 073°58'.
Warning: this ship's position is 18 days out of date.

Length 181 m; draft 11.2 m.

Type: Ship. MMSI: 538090267.

Date/timePositionNaut miles runAvg speedWind from/ knotsBaromVisibWave heightAir tempDewpointWater temp
2016-Apr-14 03:33N 39°21' W 073°58'1313.4
2016-Apr-14 02:33N 39°34' W 073°55'1313.4
2016-Apr-14 01:33N 39°47' W 073°51'1813.3
2016-Apr-14 00:11N 40°06' W 073°50'2112.6
2016-Apr-13 22:29N 40°27' W 073°50'1010.7
2016-Apr-13 21:33N 40°32' W 074°01'6 6.0
2016-Apr-13 20:31N 40°38' W 074°04'0 0.1
2016-Apr-13 19:31N 40°38' W 074°04'0 0.0
2016-Apr-13 18:31N 40°38' W 074°04'0 0.0
2016-Apr-13 17:31N 40°38' W 074°04'0 0.1
2016-Apr-13 16:31N 40°38' W 074°04'0 0.2
2016-Apr-13 15:31N 40°38' W 074°04'0 0.0
2016-Apr-13 14:33N 40°38' W 074°04'0 0.0
2016-Apr-13 13:33N 40°38' W 074°04'2 1.7
2016-Apr-13 12:33N 40°39' W 074°05'0 0.0
2016-Apr-13 11:33N 40°39' W 074°05'0 0.0
2016-Apr-13 10:30N 40°39' W 074°05'0 0.0
2016-Apr-13 09:33N 40°39' W 074°05'0 0.0
2016-Apr-13 08:33N 40°39' W 074°05'0 0.0
2016-Apr-13 07:33N 40°39' W 074°05'0 0.0
2016-Apr-13 06:33N 40°39' W 074°05'0 0.0
2016-Apr-13 05:33N 40°39' W 074°05'0 0.0
2016-Apr-13 04:33N 40°39' W 074°05'0 0.0
2016-Apr-13 03:33N 40°39' W 074°05'0 0.0
2016-Apr-13 02:33N 40°39' W 074°05'0 0.0
2016-Apr-13 01:30N 40°39' W 074°05'0 0.0
2016-Apr-13 00:30N 40°39' W 074°05'0 0.0
2016-Apr-12 23:30N 40°39' W 074°05'0 0.0
2016-Apr-12 22:33N 40°39' W 074°05'0 0.0
2016-Apr-12 21:33N 40°39' W 074°05'0 0.0
2016-Apr-12 20:24N 40°39' W 074°05'0 0.0
2016-Apr-12 19:33N 40°39' W 074°05'0 0.0
2016-Apr-12 18:33N 40°39' W 074°05'0 0.0
2016-Apr-12 17:33N 40°39' W 074°05'0 0.0
2016-Apr-12 16:33N 40°39' W 074°05'0 0.0
2016-Apr-12 15:24N 40°39' W 074°05'0 0.0
2016-Apr-12 14:33N 40°39' W 074°05'0 0.0
2016-Apr-12 13:33N 40°39' W 074°05'0 0.0
2016-Apr-12 12:33N 40°39' W 074°05'0 0.0
2016-Apr-12 11:33N 40°39' W 074°05'0 0.2
2016-Apr-12 10:33N 40°39' W 074°05'6 5.9
2016-Apr-12 09:33N 40°34' W 074°02'9 9.1
2016-Apr-12 08:33N 40°28' W 073°52'  

Dump ship's entire track history